Terminal Aerodrome Forecast
Issued by NWS Wichita, KS

Home | Current Version | Previous Version | Text Only | Print | Product List | Glossary On
Versions: 1 2 3 4 5 6 7 8 9 10 11 12 13 14 15 16 17 18 19 20 21 22 23 24 25 26 27 28 29
000
FTUS43 KICT 282126 AAA
TAFICT
TAF AMD
KICT 282126Z 2821/0118 16006KT P6SM OVC050
      TEMPO 2821/2823 BKN015
     FM282300 16008KT P6SM BKN015 OVC050
     FM011100 VRB04KT 6SM -SN OVC020
     FM011500 36005KT P6SM OVC035=

USA.gov is the U.S. government's official web portal to all federal, state and local government web resources and services.